Time;durP1;ratioP1;P1;durP2;ratioP2;P2;SDS_P1;SDS_P2;PMS_P1;PMS_P2;Temp;Humidity;BMP_temperature;BMP_pressure;BME280_temperature;BME280_humidity;BME280_pressure;Samples;Min_cycle;Max_cycle;Signal;HPM_P1;HPM_P2
2021/08/09 00:00:06;;;;;;;24.75;15.02;;;;;;;18.25;80.82;100102.56;5028931;28;20045;-76
2021/08/09 00:02:36;;;;;;;26.77;16.17;;;;;;;18.25;80.96;100107.81;5029945;28;20117;-77
2021/08/09 00:05:04;;;;;;;28.52;14.35;;;;;;;18.09;80.75;100088.22;5030409;28;20140;-76
2021/08/09 00:07:29;;;;;;;26.27;17.73;;;;;;;18.14;80.55;100112.63;5031396;28;20124;-77
2021/08/09 00:09:55;;;;;;;25.52;14.52;;;;;;;18.13;80.58;100098.56;5051010;28;20026;-76
2021/08/09 00:12:21;;;;;;;22.67;15.63;;;;;;;18.03;80.33;100087.50;5049426;28;20061;-76
2021/08/09 00:14:46;;;;;;;40.42;27.20;;;;;;;18.14;80.55;100108.19;5041365;28;20125;-77
2021/08/09 00:17:12;;;;;;;33.00;19.67;;;;;;;18.13;80.34;100101.22;5029935;28;20449;-78
2021/08/09 00:19:38;;;;;;;28.13;15.32;;;;;;;18.04;80.32;100091.03;5030317;28;20072;-78
2021/08/09 00:22:03;;;;;;;25.38;16.02;;;;;;;18.07;80.38;100101.44;5029875;28;20037;-78
2021/08/09 00:24:29;;;;;;;29.10;19.13;;;;;;;18.08;80.27;100102.28;5028064;28;20136;-77
2021/08/09 00:26:55;;;;;;;33.55;21.70;;;;;;;18.08;80.34;100108.44;5011339;28;20045;-77
2021/08/09 00:29:22;;;;;;;34.05;21.48;;;;;;;18.00;80.04;100084.13;5048947;28;20539;-76
2021/08/09 00:31:48;;;;;;;28.33;15.88;;;;;;;18.11;80.29;100096.94;5025855;28;20505;-77
2021/08/09 00:34:14;;;;;;;25.75;15.93;;;;;;;18.00;80.20;100079.72;5029663;28;20049;-77
2021/08/09 00:36:40;;;;;;;25.00;15.82;;;;;;;18.01;80.21;100097.25;5029931;28;20034;-76
2021/08/09 00:39:07;;;;;;;25.50;16.70;;;;;;;17.95;79.78;100100.06;5008219;28;20045;-77
2021/08/09 00:41:34;;;;;;;26.33;17.52;;;;;;;17.93;79.90;100112.44;5009193;28;20647;-77
2021/08/09 00:44:00;;;;;;;23.45;16.20;;;;;;;17.97;79.99;100105.28;5009085;28;20190;-77
2021/08/09 00:46:29;;;;;;;26.70;17.27;;;;;;;17.94;79.63;100116.78;5009015;28;20042;-77
2021/08/09 00:48:55;;;;;;;27.75;17.73;;;;;;;17.94;79.75;100114.16;5008733;28;20038;-78
2021/08/09 00:51:23;;;;;;;33.50;18.52;;;;;;;17.92;79.89;100111.53;5008085;28;20468;-77
2021/08/09 00:53:52;;;;;;;28.55;18.45;;;;;;;17.85;79.74;100102.16;5008344;28;20406;-76
2021/08/09 00:56:18;;;;;;;34.47;20.27;;;;;;;17.75;79.83;100087.59;5007950;28;20053;-77
2021/08/09 00:58:44;;;;;;;32.13;19.05;;;;;;;17.76;79.83;100092.78;5026941;28;20057;-77
2021/08/09 01:01:10;;;;;;;33.42;20.45;;;;;;;17.79;79.59;100099.72;4980296;28;20087;-77
2021/08/09 01:03:37;;;;;;;37.63;21.58;;;;;;;17.74;79.70;100086.75;5013650;28;20044;-77
2021/08/09 01:06:04;;;;;;;35.55;21.77;;;;;;;17.74;79.76;100097.28;5011885;28;20042;-77
2021/08/09 01:08:49;;;;;;;34.90;23.02;;;;;;;17.76;79.95;100099.84;5011570;28;20064;-75
2021/08/09 01:11:42;;;;;;;30.67;19.25;;;;;;;17.74;79.90;100099.91;4995115;28;20075;-76
2021/08/09 01:14:19;;;;;;;27.75;17.65;;;;;;;17.71;79.93;100100.00;4996827;28;20462;-76
2021/08/09 01:16:57;;;;;;;27.65;16.63;;;;;;;17.60;79.87;100078.44;5012493;28;20087;-75
2021/08/09 01:19:40;;;;;;;24.50;16.88;;;;;;;17.68;79.65;100097.47;5011930;28;20520;-77
2021/08/09 01:22:32;;;;;;;24.58;15.32;;;;;;;17.50;79.84;100063.88;4995431;28;20037;-77
2021/08/09 01:25:13;;;;;;;27.13;15.65;;;;;;;17.43;79.71;100063.25;5013735;28;20509;-76
2021/08/09 01:27:41;;;;;;;21.25;15.02;;;;;;;17.57;79.49;100087.31;5014563;28;20423;-76
2021/08/09 01:30:09;;;;;;;24.52;16.17;;;;;;;17.61;79.58;100103.84;5031408;28;20083;-77
2021/08/09 01:32:38;;;;;;;24.55;16.08;;;;;;;17.58;79.44;100106.56;5031671;28;20053;-78
2021/08/09 01:35:07;;;;;;;26.70;17.92;;;;;;;17.50;79.46;100105.97;5015053;28;20037;-77
2021/08/09 01:37:38;;;;;;;26.70;17.38;;;;;;;17.51;79.63;100113.81;5011376;28;20042;-79
2021/08/09 01:40:06;;;;;;;29.98;18.88;;;;;;;17.53;79.55;100101.47;5011758;28;20084;-77
2021/08/09 01:42:32;;;;;;;33.70;22.77;;;;;;;17.48;79.85;100086.75;5011295;28;20060;-77
2021/08/09 01:45:00;;;;;;;26.75;19.77;;;;;;;17.55;79.94;100104.03;5012005;28;20038;-77
2021/08/09 01:47:26;;;;;;;26.92;19.27;;;;;;;17.44;79.84;100097.38;5011625;28;20053;-77
2021/08/09 01:49:53;;;;;;;26.88;18.60;;;;;;;17.41;79.52;100088.72;5011857;28;20513;-78
2021/08/09 01:52:20;;;;;;;47.50;29.13;;;;;;;17.37;79.69;100087.94;4994419;28;20046;-77
2021/08/09 01:54:48;;;;;;;41.05;26.10;;;;;;;17.37;79.60;100085.31;5011303;28;20119;-77
2021/08/09 01:57:15;;;;;;;47.17;29.63;;;;;;;17.49;80.01;100104.25;4994418;28;20058;-79
2021/08/09 01:59:40;;;;;;;49.15;29.70;;;;;;;17.24;80.11;100061.19;5010819;28;20406;-78
2021/08/09 02:02:06;;;;;;;32.05;21.77;;;;;;;17.42;80.03;100096.56;5011788;28;20425;-77
2021/08/09 02:04:32;;;;;;;31.67;19.05;;;;;;;17.43;80.35;100100.06;5017975;28;20048;-78
2021/08/09 02:06:59;;;;;;;32.17;21.63;;;;;;;17.40;79.96;100101.00;5028277;28;20065;-77
2021/08/09 02:09:24;;;;;;;29.48;19.50;;;;;;;17.45;80.25;100120.13;5027440;28;20036;-77
2021/08/09 02:11:53;;;;;;;30.38;18.70;;;;;;;17.42;80.18;100117.59;5021155;28;20375;-78
2021/08/09 02:14:20;;;;;;;28.75;18.75;;;;;;;17.42;80.09;100128.13;5030993;28;20071;-77
2021/08/09 02:16:53;;;;;;;33.17;19.33;;;;;;;17.42;79.99;100130.75;5030629;28;20041;-76
2021/08/09 02:19:36;;;;;;;26.65;18.60;;;;;;;17.41;80.09;100131.66;5030768;28;20041;-76
2021/08/09 02:22:11;;;;;;;39.58;23.75;;;;;;;17.45;80.15;100135.91;5030254;28;20056;-78
2021/08/09 02:24:58;;;;;;;37.20;24.13;;;;;;;17.37;80.11;100116.88;5011238;28;20048;-77
2021/08/09 02:27:29;;;;;;;28.73;21.38;;;;;;;17.54;80.02;100139.16;5010717;28;20041;-77
2021/08/09 02:29:56;;;;;;;30.95;21.95;;;;;;;17.50;80.02;100138.38;4994202;28;20076;-77
2021/08/09 02:32:28;;;;;;;33.47;22.27;;;;;;;17.58;79.97;100143.41;5013277;28;20053;-76
2021/08/09 02:34:57;;;;;;;24.55;19.35;;;;;;;17.55;80.11;100125.06;5018772;28;20029;-78
2021/08/09 02:37:25;;;;;;;25.08;19.63;;;;;;;17.65;80.18;100147.56;5026620;28;20141;-78
2021/08/09 02:39:52;;;;;;;26.05;19.88;;;;;;;17.58;79.67;100132.88;5014418;28;20061;-77
2021/08/09 02:42:18;;;;;;;39.10;24.23;;;;;;;17.55;79.97;100125.94;5031203;28;20077;-77
2021/08/09 02:44:46;;;;;;;28.02;20.38;;;;;;;17.73;79.81;100148.19;5030460;28;20560;-76
2021/08/09 02:47:13;;;;;;;26.58;19.88;;;;;;;17.75;79.94;100149.00;5013390;28;20049;-78
2021/08/09 02:49:46;;;;;;;24.80;18.50;;;;;;;17.57;79.88;100116.25;5030036;28;20119;-77
2021/08/09 02:52:13;;;;;;;30.38;21.65;;;;;;;17.71;79.88;100147.38;5030174;28;20514;-76
2021/08/09 02:54:39;;;;;;;27.92;20.60;;;;;;;17.54;79.62;100112.88;5030099;28;20143;-78
2021/08/09 02:57:07;;;;;;;28.65;21.42;;;;;;;17.64;79.50;100119.53;5013276;28;20075;-76
2021/08/09 02:59:32;;;;;;;37.00;23.05;;;;;;;17.69;79.62;100125.50;5029507;28;20390;-78
2021/08/09 03:02:00;;;;;;;29.85;20.58;;;;;;;17.77;79.71;100133.97;5031126;28;20044;-77
2021/08/09 03:04:27;;;;;;;31.17;21.75;;;;;;;17.87;79.62;100144.22;5031857;28;20041;-77
2021/08/09 03:06:55;;;;;;;32.30;22.30;;;;;;;17.93;79.57;100144.00;5031184;28;20041;-77
2021/08/09 03:09:21;;;;;;;34.55;21.15;;;;;;;17.87;79.49;100136.31;5032936;28;20451;-77
2021/08/09 03:11:48;;;;;;;34.00;25.05;;;;;;;17.90;79.46;100131.81;5014852;28;20041;-78
2021/08/09 03:14:22;;;;;;;38.22;26.27;;;;;;;18.00;79.41;100142.06;5031206;28;20052;-77
2021/08/09 03:16:49;;;;;;;38.55;25.15;;;;;;;18.02;79.35;100134.97;5029663;28;20102;-76
2021/08/09 03:19:15;;;;;;;30.50;21.30;;;;;;;18.14;79.24;100155.59;5012493;28;20044;-78
2021/08/09 03:21:55;;;;;;;33.10;21.42;;;;;;;18.11;79.06;100144.31;5028936;28;20049;-78
2021/08/09 03:24:22;;;;;;;37.45;23.50;;;;;;;18.19;79.16;100145.78;5012109;28;20413;-77
2021/08/09 03:26:49;;;;;;;33.33;22.38;;;;;;;18.25;78.94;100146.47;5026340;28;20065;-77
2021/08/09 03:29:15;;;;;;;33.58;21.02;;;;;;;18.36;79.01;100154.84;5030613;28;20501;-78
2021/08/09 03:31:41;;;;;;;30.45;21.65;;;;;;;18.42;78.79;100157.25;5030268;28;20132;-77
2021/08/09 03:34:07;;;;;;;30.35;19.13;;;;;;;18.48;78.66;100159.69;5032236;28;20049;-80
2021/08/09 03:36:33;;;;;;;33.08;21.35;;;;;;;18.47;78.56;100147.44;5031039;28;20049;-77
2021/08/09 03:39:00;;;;;;;29.58;20.27;;;;;;;18.64;78.33;100149.47;5031605;28;20520;-79
2021/08/09 03:41:25;;;;;;;26.95;19.42;;;;;;;18.78;78.56;100150.72;5031693;28;20049;-77
2021/08/09 03:43:51;;;;;;;30.38;20.00;;;;;;;19.02;78.42;100162.13;5031329;28;20041;-82
2021/08/09 03:46:17;;;;;;;31.00;21.00;;;;;;;19.14;78.27;100144.97;5032043;28;20166;-78
2021/08/09 03:48:43;;;;;;;31.65;21.10;;;;;;;19.32;77.90;100140.75;5013650;28;20073;-79
2021/08/09 03:51:09;;;;;;;28.23;18.83;;;;;;;19.56;77.67;100146.81;5013523;28;20088;-79
2021/08/09 03:53:35;;;;;;;33.60;22.23;;;;;;;19.55;76.73;100116.06;5012571;28;20041;-78
2021/08/09 03:56:01;;;;;;;34.35;21.42;;;;;;;19.92;76.93;100148.00;5030325;28;20056;-81
2021/08/09 03:58:30;;;;;;;35.60;22.52;;;;;;;20.23;76.94;100153.75;5014897;28;20049;-79
2021/08/09 04:00:56;;;;;;;31.30;21.70;;;;;;;20.49;76.81;100149.13;5039053;28;20076;-79
2021/08/09 04:06:44;;;;;;;43.80;25.45;;;;;;;20.68;74.71;100106.84;5041176;28;20071;-77
2021/08/09 04:09:39;;;;;;;38.65;26.27;;;;;;;21.08;75.11;100157.91;5018795;28;20556;-79
2021/08/09 04:12:42;;;;;;;;;;;;;;;;;;;;;
2021/08/09 04:15:32;;;;;;;41.95;26.55;;;;;;;20.61;74.70;99993.47;5032096;28;20065;-81
2021/08/09 04:18:18;;;;;;;40.17;25.52;;;;;;;21.42;74.26;100097.22;5017378;28;20095;-80
2021/08/09 04:21:05;;;;;;;33.67;24.80;;;;;;;21.12;73.90;100029.88;5013976;28;20140;-78
2021/08/09 04:23:38;;;;;;;41.95;25.52;;;;;;;22.04;73.38;100112.66;5029747;28;20492;-78
2021/08/09 04:26:19;;;;;;;35.03;25.05;;;;;;;22.59;73.24;100163.75;5027866;28;20076;-81
2021/08/09 04:29:09;;;;;;;67.00;42.17;;;;;;;22.61;72.44;100106.19;5030028;28;20034;-78
2021/08/09 04:31:45;;;;;;;63.65;44.53;;;;;;;22.13;71.87;100003.56;5030058;28;20136;-78
2021/08/09 04:34:27;;;;;;;46.65;35.20;;;;;;;22.63;71.31;100028.28;5013156;28;20044;-78
2021/08/09 04:37:37;;;;;;;63.72;39.03;;;;;;;22.83;70.12;100031.59;5019281;28;20291;-76
2021/08/09 04:40:05;;;;;;;53.88;38.00;;;;;;;23.76;69.78;100143.13;5045464;28;20037;-79
2021/08/09 04:43:18;;;;;;;63.55;40.08;;;;;;;23.29;69.25;100046.69;5034278;28;20050;-76
2021/08/09 04:46:29;;;;;;;66.15;46.00;;;;;;;23.94;68.45;100084.53;5027627;28;20056;-76
2021/08/09 04:49:34;;;;;;;71.25;47.08;;;;;;;23.74;67.03;100028.97;5012646;28;20033;-76
2021/08/09 04:59:11;;;;;;;53.33;36.75;;;;;;;25.12;65.51;100096.72;5013565;28;20053;-77
2021/08/09 05:01:55;;;;;;;47.15;35.60;;;;;;;24.88;64.18;100003.41;4996629;28;20045;-77
2021/08/09 05:04:20;;;;;;;43.75;33.15;;;;;;;25.62;63.46;100113.00;5029428;28;20045;-77
2021/08/09 05:07:07;;;;;;;43.42;31.38;;;;;;;25.81;62.54;100112.63;5013006;28;20732;-77
2021/08/09 05:10:03;;;;;;;41.35;29.85;;;;;;;26.13;62.00;100133.59;4994317;28;20050;-78
2021/08/09 05:12:30;;;;;;;39.38;30.08;;;;;;;26.22;61.27;100129.44;4991742;28;21332;-78
2021/08/09 05:15:00;;;;;;;39.33;28.52;;;;;;;26.43;60.58;100129.72;4992822;28;20461;-76
2021/08/09 05:17:26;;;;;;;35.85;25.55;;;;;;;26.52;59.96;100111.38;4992088;28;20076;-79
2021/08/09 05:19:53;;;;;;;34.00;26.65;;;;;;;26.80;59.28;100131.63;5009416;28;20069;-79
2021/08/09 05:22:19;;;;;;;52.97;40.10;;;;;;;26.87;58.50;100119.56;4978038;28;20485;-79
2021/08/09 05:24:45;;;;;;;61.42;47.72;;;;;;;27.14;57.98;100128.31;4994172;28;20042;-76
2021/08/09 05:27:11;;;;;;;38.33;32.08;;;;;;;27.29;57.70;100110.31;5028787;28;20045;-76
2021/08/09 05:29:37;;;;;;;32.97;24.42;;;;;;;27.47;56.76;100110.81;5016472;28;20044;-78
2021/08/09 05:32:04;;;;;;;36.75;27.80;;;;;;;27.93;56.54;100115.28;5030549;28;20049;-81
2021/08/09 05:34:32;;;;;;;37.17;27.55;;;;;;;28.64;56.14;100118.78;4996633;28;20042;-79
2021/08/09 05:36:58;;;;;;;24.95;20.83;;;;;;;29.76;54.76;100106.06;5030047;28;20068;-78
2021/08/09 05:39:24;;;;;;;27.00;19.73;;;;;;;31.32;52.34;100109.53;5028955;28;20179;-78
2021/08/09 05:41:50;;;;;;;21.40;18.10;;;;;;;32.69;49.57;100103.00;5011593;28;20077;-78
2021/08/09 05:44:17;;;;;;;24.35;17.65;;;;;;;33.09;47.21;100095.53;5014700;28;20068;-79
2021/08/09 05:46:49;;;;;;;23.85;16.52;;;;;;;33.52;45.72;100093.06;5019989;28;20033;-80
2021/08/09 05:49:16;;;;;;;19.42;14.23;;;;;;;34.51;43.94;100077.53;5032738;28;20071;-79
2021/08/09 05:51:42;;;;;;;16.17;13.02;;;;;;;35.69;41.56;100072.94;5032836;28;20073;-79
2021/08/09 05:54:09;;;;;;;18.85;13.88;;;;;;;36.51;39.82;100064.78;5000825;28;20045;-79
2021/08/09 05:56:36;;;;;;;18.63;12.73;;;;;;;37.75;36.96;100075.59;5001098;28;20045;-80
2021/08/09 05:59:15;;;;;;;20.50;13.65;;;;;;;38.36;35.54;100055.56;5028161;28;20152;-81
2021/08/09 06:01:49;;;;;;;16.85;13.05;;;;;;;38.10;34.67;99963.75;5033782;28;20052;-79
2021/08/09 06:04:20;;;;;;;17.05;12.63;;;;;;;38.32;34.35;100078.69;5009979;28;20041;-79
2021/08/09 06:06:49;;;;;;;18.40;13.37;;;;;;;38.06;33.46;100066.47;5018098;28;20051;-80
2021/08/09 06:09:29;;;;;;;19.25;14.25;;;;;;;37.55;33.37;100064.41;5000875;28;20045;-81
2021/08/09 06:12:13;;;;;;;17.60;12.73;;;;;;;37.61;33.19;100079.16;5010845;28;20125;-78
2021/08/09 06:14:40;;;;;;;20.48;12.93;;;;;;;38.01;33.43;100079.78;4997232;28;20045;-78
2021/08/09 06:17:07;;;;;;;19.05;12.90;;;;;;;39.20;31.49;100099.59;5030707;28;20049;-78
2021/08/09 06:19:35;;;;;;;14.93;11.38;;;;;;;40.05;30.24;100079.78;5013890;28;20099;-78
2021/08/09 06:22:02;;;;;;;16.02;11.68;;;;;;;40.62;29.02;100075.00;5030701;28;20049;-78
2021/08/09 06:24:32;;;;;;;17.60;12.95;;;;;;;41.23;28.21;100091.53;4990808;28;20056;-78
2021/08/09 06:26:58;;;;;;;14.27;10.38;;;;;;;42.12;27.12;100085.81;5021691;28;20087;-79
2021/08/09 06:29:24;;;;;;;13.52;10.45;;;;;;;42.81;26.72;100090.81;5010739;28;20040;-77
2021/08/09 06:31:53;;;;;;;14.57;11.88;;;;;;;43.43;25.57;100085.50;5010089;28;20099;-77
2021/08/09 06:34:34;;;;;;;14.00;10.60;;;;;;;43.17;24.94;100086.56;5032348;28;20080;-79
2021/08/09 06:37:00;;;;;;;13.30;11.10;;;;;;;43.55;24.86;100062.88;5032537;28;20120;-79
2021/08/09 06:39:29;;;;;;;13.38;10.20;;;;;;;44.09;23.38;100063.19;5003187;28;20052;-78
2021/08/09 06:42:08;;;;;;;15.63;10.93;;;;;;;44.17;22.12;100040.94;5028545;28;20041;-78
2021/08/09 06:44:40;;;;;;;12.57;10.10;;;;;;;44.38;23.13;100061.56;5051509;28;20045;-80
2021/08/09 06:47:06;;;;;;;13.77;9.52;;;;;;;45.09;22.59;100065.66;5027588;28;20046;-78
2021/08/09 06:49:33;;;;;;;13.80;9.70;;;;;;;45.80;21.55;100070.34;5038553;28;20049;-79
2021/08/09 06:52:02;;;;;;;12.68;9.50;;;;;;;46.44;21.08;100066.75;5033381;28;20045;-79
2021/08/09 06:54:32;;;;;;;10.68;9.55;;;;;;;46.82;20.31;100065.25;5034287;28;20053;-79
2021/08/09 06:57:06;;;;;;;12.75;8.43;;;;;;;47.20;20.05;100049.13;4999936;28;20227;-77
2021/08/09 06:59:33;;;;;;;10.07;8.43;;;;;;;47.75;19.70;100063.97;5034678;28;20048;-78
2021/08/09 07:02:00;;;;;;;11.13;9.02;;;;;;;48.04;19.27;100057.47;5017706;28;20046;-81
2021/08/09 07:04:29;;;;;;;9.80;7.85;;;;;;;48.67;18.91;100063.44;5031440;28;20048;-79
2021/08/09 07:07:01;;;;;;;9.88;8.27;;;;;;;48.22;18.38;100070.91;5030311;28;20056;-78
2021/08/09 07:09:27;;;;;;;8.65;7.63;;;;;;;48.63;18.28;100069.75;5031354;28;20394;-79
2021/08/09 07:11:55;;;;;;;9.68;7.93;;;;;;;49.03;18.04;100079.50;5029719;28;20122;-79
2021/08/09 07:14:22;;;;;;;10.23;7.85;;;;;;;49.56;17.56;100081.56;5013693;28;20049;-78
2021/08/09 07:16:50;;;;;;;8.90;7.97;;;;;;;49.14;17.15;100086.78;5029598;28;20048;-79
2021/08/09 07:19:22;;;;;;;9.88;7.82;;;;;;;49.52;16.87;100066.63;5013573;28;20032;-79
2021/08/09 07:21:54;;;;;;;8.63;7.80;;;;;;;49.95;16.28;100042.53;5013027;28;20575;-80
2021/08/09 07:24:20;;;;;;;9.35;7.80;;;;;;;50.28;16.50;100061.75;5028939;28;20045;-79
2021/08/09 07:26:48;;;;;;;9.82;7.70;;;;;;;50.71;15.78;100051.31;5006093;28;20041;-77
2021/08/09 07:29:17;;;;;;;8.13;7.32;;;;;;;51.00;15.23;100047.16;4993049;28;20037;-79
2021/08/09 07:31:43;;;;;;;12.80;7.40;;;;;;;51.16;15.38;100053.53;4992990;28;20165;-78
2021/08/09 07:34:09;;;;;;;9.70;6.53;;;;;;;51.24;15.11;100050.19;5008918;28;20073;-77
2021/08/09 07:36:35;;;;;;;8.23;7.32;;;;;;;51.62;14.37;100047.06;5010151;28;20141;-78
2021/08/09 07:39:03;;;;;;;11.18;7.50;;;;;;;51.86;14.12;100029.78;5027774;28;20088;-79
2021/08/09 07:41:29;;;;;;;9.18;6.32;;;;;;;52.25;14.46;100051.25;5013159;28;20080;-78
2021/08/09 07:43:58;;;;;;;9.10;6.72;;;;;;;52.46;14.43;100054.72;5029331;28;20520;-77
2021/08/09 07:46:33;;;;;;;8.98;6.25;;;;;;;52.30;13.55;100051.22;5029615;28;20428;-79
2021/08/09 07:48:59;;;;;;;9.07;6.90;;;;;;;52.82;13.60;100045.31;5029688;28;20497;-78
2021/08/09 07:51:27;;;;;;;9.18;7.18;;;;;;;53.27;13.45;100050.75;5021725;28;20044;-79
2021/08/09 07:53:55;;;;;;;9.65;6.70;;;;;;;53.17;13.08;100043.31;5032505;28;20041;-79
2021/08/09 07:56:21;;;;;;;7.70;6.75;;;;;;;53.30;12.64;100050.97;5019327;28;20057;-79
2021/08/09 07:58:47;;;;;;;11.27;6.68;;;;;;;53.65;12.65;100044.50;5029449;28;20164;-77
2021/08/09 08:01:16;;;;;;;8.10;6.60;;;;;;;53.59;12.56;100038.97;5034524;28;20037;-79
2021/08/09 08:03:42;;;;;;;8.38;6.65;;;;;;;53.40;12.86;100032.53;5029815;28;20053;-76
2021/08/09 08:06:08;;;;;;;13.77;6.97;;;;;;;53.47;12.28;100041.38;5028634;28;20053;-78
2021/08/09 08:08:36;;;;;;;7.82;6.55;;;;;;;53.28;12.66;100044.06;5028905;28;20480;-78
2021/08/09 08:11:05;;;;;;;7.32;6.53;;;;;;;53.36;12.75;100045.38;5030570;28;20040;-79
2021/08/09 08:13:37;;;;;;;11.00;6.90;;;;;;;53.14;12.67;100041.13;5012760;28;20052;-78
2021/08/09 08:16:15;;;;;;;11.68;7.03;;;;;;;52.89;12.29;100006.91;4996752;28;20052;-76
2021/08/09 08:18:41;;;;;;;7.40;6.70;;;;;;;52.51;12.36;99995.56;4996516;28;20061;-75
2021/08/09 08:21:07;;;;;;;7.32;6.63;;;;;;;53.07;12.23;100046.22;5030311;28;20048;-75
2021/08/09 08:23:34;;;;;;;8.35;7.55;;;;;;;53.41;12.61;100034.19;4996618;28;20045;-77
2021/08/09 08:26:08;;;;;;;8.13;6.82;;;;;;;53.75;11.42;100024.91;5006443;28;20100;-77
2021/08/09 08:28:36;;;;;;;8.13;6.60;;;;;;;53.88;11.51;100021.41;4992652;28;20037;-76
2021/08/09 08:31:03;;;;;;;11.32;6.72;;;;;;;53.64;11.79;100034.50;4994352;28;20045;-79
2021/08/09 08:33:29;;;;;;;12.50;6.60;;;;;;;53.30;11.77;100020.41;5009743;28;20073;-78
2021/08/09 08:35:59;;;;;;;8.77;6.45;;;;;;;53.40;11.78;100022.28;4978612;28;20077;-76
2021/08/09 08:38:47;;;;;;;7.15;6.45;;;;;;;53.51;11.65;99956.28;5031050;28;20042;-77
2021/08/09 08:41:31;;;;;;;7.05;6.30;;;;;;;53.97;11.80;99951.22;5016110;28;20045;-77
2021/08/09 08:44:01;;;;;;;7.20;6.50;;;;;;;54.23;10.94;99995.31;5013536;28;20038;-77
2021/08/09 08:46:28;;;;;;;11.15;6.53;;;;;;;54.74;11.16;100010.38;5013362;28;20060;-76
2021/08/09 08:49:05;;;;;;;8.85;6.85;;;;;;;54.84;10.68;100006.59;5035958;28;20044;-76
2021/08/09 08:51:32;;;;;;;11.35;7.03;;;;;;;55.01;10.67;100033.88;5041108;28;20049;-75
2021/08/09 08:54:00;;;;;;;8.40;6.07;;;;;;;55.11;11.22;100049.56;4990191;28;20037;-74
2021/08/09 08:56:36;;;;;;;9.32;6.53;;;;;;;54.97;11.09;100035.63;5032309;28;20060;-78
2021/08/09 08:59:05;;;;;;;6.68;6.07;;;;;;;54.13;11.02;99994.38;5029513;28;20505;-77
2021/08/09 09:01:33;;;;;;;7.53;6.15;;;;;;;54.28;11.04;100037.00;5013810;28;20041;-77
2021/08/09 09:04:00;;;;;;;8.70;6.63;;;;;;;54.04;10.73;100023.97;5031825;28;20595;-76
2021/08/09 09:06:26;;;;;;;12.75;6.85;;;;;;;53.11;11.88;100036.16;4999682;28;20041;-78
2021/08/09 09:08:52;;;;;;;15.52;6.70;;;;;;;53.11;11.98;100028.66;5032490;28;20045;-77
2021/08/09 09:11:24;;;;;;;8.68;6.53;;;;;;;52.95;11.98;100016.88;5033926;28;20038;-77
2021/08/09 09:13:57;;;;;;;7.85;6.20;;;;;;;51.55;12.29;100018.78;5032760;28;20049;-78
2021/08/09 09:16:24;;;;;;;7.68;6.90;;;;;;;49.49;13.55;100007.22;5016440;28;20048;-77
2021/08/09 09:18:59;;;;;;;9.77;6.88;;;;;;;47.55;15.25;99997.56;5018798;28;20041;-76
2021/08/09 09:21:33;;;;;;;9.18;6.70;;;;;;;46.57;16.15;99994.94;5046903;28;20037;-77
2021/08/09 09:24:08;;;;;;;10.30;7.43;;;;;;;46.96;16.20;100004.41;5049526;28;20067;-77
2021/08/09 09:26:35;;;;;;;10.63;6.80;;;;;;;47.78;15.20;100013.06;5011386;28;20049;-76
2021/08/09 09:29:10;;;;;;;10.10;6.88;;;;;;;48.64;15.22;100010.69;5033926;28;20057;-76
2021/08/09 09:31:36;;;;;;;9.88;6.50;;;;;;;49.69;14.42;100009.25;5014251;28;20044;-77
2021/08/09 09:34:09;;;;;;;10.00;6.53;;;;;;;50.90;13.47;100015.59;5013051;28;20053;-78
2021/08/09 09:36:54;;;;;;;10.97;6.53;;;;;;;51.85;12.59;100011.50;5012905;28;20045;-76
2021/08/09 09:39:38;;;;;;;10.00;6.95;;;;;;;52.41;12.57;100011.22;5010133;28;20524;-76
2021/08/09 09:42:07;;;;;;;7.18;6.43;;;;;;;52.62;12.48;100011.06;5018446;28;20515;-77
2021/08/09 09:44:35;;;;;;;8.65;6.22;;;;;;;52.88;11.66;100012.78;5017396;28;20049;-78
2021/08/09 09:47:20;;;;;;;9.93;6.10;;;;;;;52.90;11.64;100014.13;5022293;28;20049;-81
2021/08/09 09:49:48;;;;;;;7.30;5.95;;;;;;;53.06;11.44;100012.06;5015372;28;20057;-79
2021/08/09 09:52:37;;;;;;;8.90;6.57;;;;;;;52.04;11.48;100004.19;5000264;28;20100;-77
2021/08/09 09:55:10;;;;;;;8.40;6.78;;;;;;;51.77;11.92;99999.06;4993782;28;20096;-78
2021/08/09 09:57:46;;;;;;;8.85;6.53;;;;;;;52.18;11.75;99996.06;5015756;28;20068;-78
2021/08/09 10:00:17;;;;;;;9.35;7.30;;;;;;;52.19;12.09;99983.88;4997466;28;20048;-78
2021/08/09 10:02:45;;;;;;;10.98;6.93;;;;;;;52.38;11.79;100000.69;4995603;28;20077;-78
2021/08/09 10:05:12;;;;;;;11.05;7.60;;;;;;;51.75;11.51;100002.13;5013495;28;20048;-79
2021/08/09 10:07:40;;;;;;;7.73;6.90;;;;;;;51.88;11.73;99995.13;5016974;28;20155;-77
2021/08/09 10:10:09;;;;;;;10.00;7.10;;;;;;;52.16;12.07;100000.25;5031743;28;20065;-80
2021/08/09 10:12:37;;;;;;;10.13;7.20;;;;;;;51.99;11.59;99978.47;5014687;28;20128;-77
2021/08/09 10:15:04;;;;;;;10.68;6.97;;;;;;;51.75;12.34;99985.50;5015166;28;20493;-77
2021/08/09 10:17:31;;;;;;;8.55;7.60;;;;;;;51.75;11.85;99992.97;5030787;28;20045;-79
2021/08/09 10:20:00;;;;;;;8.45;7.63;;;;;;;51.79;11.96;99991.31;5030797;28;20105;-79
2021/08/09 10:22:27;;;;;;;11.90;7.28;;;;;;;51.55;12.40;99994.72;5030540;28;20048;-78
2021/08/09 10:24:55;;;;;;;7.88;7.15;;;;;;;51.96;11.75;100002.06;5010369;28;20037;-75
2021/08/09 10:27:46;;;;;;;8.18;7.35;;;;;;;52.00;11.53;100003.13;5030466;28;20045;-79
2021/08/09 10:30:14;;;;;;;9.25;6.85;;;;;;;51.64;11.65;99979.19;5012849;28;20148;-78
2021/08/09 10:32:50;;;;;;;7.55;6.85;;;;;;;51.29;11.87;99986.47;5030530;28;20040;-78
2021/08/09 10:35:40;;;;;;;10.02;7.15;;;;;;;50.78;12.34;99988.19;5013969;28;20136;-76
2021/08/09 10:38:15;;;;;;;10.90;7.13;;;;;;;49.30;13.14;99987.47;5010181;28;20033;-78
2021/08/09 10:40:46;;;;;;;10.57;7.20;;;;;;;47.25;14.47;99983.13;5011497;28;20124;-76
2021/08/09 10:43:12;;;;;;;12.35;6.65;;;;;;;45.81;15.42;99982.19;5009868;28;20046;-77
2021/08/09 10:45:44;;;;;;;8.77;6.63;;;;;;;45.05;16.39;99980.19;5011120;28;20429;-75
2021/08/09 10:48:11;;;;;;;10.73;7.18;;;;;;;44.18;17.47;99985.06;5009603;28;20117;-78
2021/08/09 10:50:42;;;;;;;7.90;7.10;;;;;;;43.12;18.24;99986.00;5011149;28;20143;-76
2021/08/09 10:53:27;;;;;;;8.52;6.80;;;;;;;42.21;19.01;99977.97;5019097;28;20100;-78
2021/08/09 10:55:56;;;;;;;11.85;7.03;;;;;;;41.43;19.14;99976.91;5013560;28;20049;-75
2021/08/09 10:58:41;;;;;;;8.35;7.43;;;;;;;40.69;20.71;99967.91;5010094;28;20196;-77
2021/08/09 11:01:08;;;;;;;9.98;7.20;;;;;;;40.05;21.23;99974.41;4994056;28;20147;-77
2021/08/09 11:03:33;;;;;;;9.90;7.35;;;;;;;39.51;21.99;99959.66;5011259;28;20124;-75
2021/08/09 11:06:38;;;;;;;10.18;7.60;;;;;;;38.95;22.63;99968.63;5011554;28;20132;-77
2021/08/09 11:09:40;;;;;;;13.50;7.85;;;;;;;38.31;23.33;99971.09;5028211;28;20376;-79
2021/08/09 11:12:32;;;;;;;10.48;7.68;;;;;;;37.76;24.18;99974.16;5032890;28;20046;-78
2021/08/09 11:15:00;;;;;;;10.05;7.55;;;;;;;37.43;24.08;99976.38;5030551;28;20060;-80
2021/08/09 11:17:28;;;;;;;10.07;7.43;;;;;;;37.11;24.71;99965.66;5032070;28;20120;-80
2021/08/09 11:20:13;;;;;;;9.35;7.32;;;;;;;36.83;25.23;99957.22;5032266;28;20427;-82
2021/08/09 11:22:40;;;;;;;13.00;7.38;;;;;;;36.59;25.32;99957.22;5029779;28;20048;-79
2021/08/09 11:25:26;;;;;;;12.98;7.57;;;;;;;36.48;26.24;99976.63;5026613;28;20045;-80
2021/08/09 11:28:04;;;;;;;10.15;7.50;;;;;;;36.39;26.44;99977.66;5013285;28;20052;-79
2021/08/09 11:30:58;;;;;;;11.30;7.30;;;;;;;35.91;26.65;99929.81;5014706;28;20092;-78
2021/08/09 11:33:39;;;;;;;12.15;6.93;;;;;;;35.76;27.36;99955.91;5012527;28;20045;-78
2021/08/09 11:36:10;;;;;;;10.63;7.63;;;;;;;35.49;27.88;99960.72;5012886;28;20072;-80
2021/08/09 11:39:01;;;;;;;13.40;7.70;;;;;;;35.23;27.86;99959.91;5030517;28;20052;-78
2021/08/09 11:41:31;;;;;;;9.63;6.90;;;;;;;34.99;27.73;99961.63;4997265;28;20133;-81
2021/08/09 11:44:12;;;;;;;8.73;7.65;;;;;;;34.87;28.61;99964.78;5017870;28;20139;-80
2021/08/09 11:46:52;;;;;;;11.32;7.20;;;;;;;34.33;28.79;99893.97;5000508;28;20037;-79